createdAt,value
2017-09-13T06:23:42.181Z,0
2017-09-13T06:24:51.075Z,0
2017-09-13T06:26:00.249Z,0
2017-09-13T06:27:09.087Z,0
2017-09-13T06:28:18.474Z,0
2017-09-13T06:29:27.657Z,0
2017-09-13T06:30:36.647Z,0
2017-09-13T06:31:45.551Z,0
2017-09-13T06:32:54.506Z,0
2017-09-13T06:34:03.785Z,5
2017-09-13T06:35:12.687Z,5
2017-09-13T06:36:21.967Z,5
2017-09-13T06:37:30.887Z,5
2017-09-13T06:38:39.718Z,5
2017-09-13T06:39:48.578Z,10
2017-09-13T06:40:57.628Z,10
2017-09-13T06:42:06.464Z,10
2017-09-13T06:43:15.303Z,10
2017-09-13T06:44:24.137Z,10
2017-09-13T06:45:32.974Z,10
2017-09-13T06:46:41.810Z,10
2017-09-13T06:47:50.646Z,15
2017-09-13T06:49:00.231Z,20
2017-09-13T06:50:09.611Z,20
2017-09-13T06:51:18.888Z,20
2017-09-13T06:52:27.726Z,20
2017-09-13T06:53:36.560Z,20
2017-09-13T06:54:45.849Z,20
2017-09-13T06:55:54.682Z,15
2017-09-13T06:57:03.871Z,15
2017-09-13T06:58:12.956Z,15
2017-09-13T06:59:21.919Z,10
2017-09-13T07:00:31.108Z,15
2017-09-13T07:01:39.942Z,25
2017-09-13T07:02:48.776Z,35
2017-09-13T07:03:57.608Z,35
2017-09-13T07:05:06.992Z,40
2017-09-13T07:06:16.267Z,40
2017-09-13T07:07:25.134Z,35
2017-09-13T07:08:33.969Z,30
2017-09-13T07:09:42.960Z,25
2017-09-13T07:10:51.901Z,20
2017-09-13T07:12:00.734Z,20
2017-09-13T07:13:09.568Z,15
2017-09-13T07:14:18.402Z,20
2017-09-13T07:15:28.649Z,20
2017-09-13T07:16:37.854Z,25
2017-09-13T07:17:46.694Z,25
2017-09-13T07:18:55.973Z,25
2017-09-13T07:20:05.133Z,25
2017-09-13T07:21:13.967Z,25
2017-09-13T07:22:22.841Z,20
2017-09-13T07:23:32.001Z,20
2017-09-13T07:24:41.035Z,15
2017-09-13T07:25:49.910Z,15
2017-09-13T07:26:58.965Z,15
2017-09-13T07:28:07.802Z,15
2017-09-13T07:29:16.644Z,20
2017-09-13T07:30:25.955Z,30
2017-09-13T07:31:35.496Z,35
2017-09-13T07:32:44.414Z,45
2017-09-13T07:33:53.342Z,50
2017-09-13T07:35:02.570Z,50
2017-09-13T07:36:11.402Z,35
2017-09-13T07:37:20.872Z,35
2017-09-13T07:38:29.770Z,45
2017-09-13T07:39:38.639Z,50
2017-09-13T07:40:47.473Z,50
2017-09-13T07:41:56.497Z,45
2017-09-13T07:43:05.673Z,35
2017-09-13T07:44:14.508Z,35
2017-09-13T07:45:23.985Z,30
2017-09-13T07:46:32.819Z,30
2017-09-13T07:47:41.744Z,40
2017-09-13T07:48:51.030Z,40
2017-09-13T07:50:00.159Z,45
2017-09-13T07:51:08.995Z,40
2017-09-13T07:52:18.351Z,35
2017-09-13T07:53:27.515Z,35
2017-09-13T07:54:36.351Z,35
2017-09-13T07:55:45.465Z,35
2017-09-13T07:56:54.344Z,45
2017-09-13T07:58:03.284Z,45
2017-09-13T07:59:12.329Z,45
2017-09-13T08:00:21.211Z,35
2017-09-13T08:01:30.120Z,25
2017-09-13T08:02:38.961Z,25
2017-09-13T08:03:47.798Z,25
2017-09-13T08:04:56.634Z,20
2017-09-13T08:06:05.466Z,20
2017-09-13T08:07:14.303Z,20
2017-09-13T08:08:23.909Z,20
2017-09-13T08:09:33.040Z,15
2017-09-13T08:10:41.883Z,15
2017-09-13T08:11:50.711Z,15
2017-09-13T08:12:59.705Z,10
2017-09-13T08:14:08.542Z,15
2017-09-13T08:15:17.724Z,15
2017-09-13T08:16:26.554Z,15
2017-09-13T08:17:35.747Z,15
2017-09-13T08:18:44.576Z,20
2017-09-13T08:19:53.746Z,20
2017-09-13T08:21:02.964Z,30
2017-09-13T08:22:11.993Z,25
2017-09-13T08:23:21.213Z,20
2017-09-13T08:24:30.164Z,20
2017-09-13T08:25:38.998Z,20
2017-09-13T08:26:47.834Z,20
2017-09-13T08:27:56.667Z,20
2017-09-13T08:29:05.501Z,25
2017-09-13T08:30:14.337Z,20
2017-09-13T08:31:23.167Z,20
2017-09-13T08:32:32.002Z,20
2017-09-13T08:33:40.832Z,20
2017-09-13T08:34:49.669Z,20
2017-09-13T08:35:58.507Z,20
2017-09-13T08:37:07.340Z,30
2017-09-13T08:38:17.036Z,30
2017-09-13T08:39:26.639Z,25
2017-09-13T08:40:35.985Z,20
2017-09-13T08:41:44.819Z,20
2017-09-13T08:42:53.658Z,20
2017-09-13T08:44:02.491Z,20
2017-09-13T08:45:11.365Z,20
2017-09-13T08:46:20.423Z,25
2017-09-13T08:47:29.261Z,25
2017-09-13T08:48:38.097Z,30
2017-09-13T08:49:46.924Z,25
2017-09-13T08:50:55.761Z,20
2017-09-13T08:52:04.600Z,20
2017-09-13T08:53:13.639Z,30
2017-09-13T08:54:22.480Z,35
2017-09-13T08:55:31.488Z,35
2017-09-13T08:56:41.213Z,35
2017-09-13T08:57:50.776Z,40
2017-09-13T08:59:00.881Z,25
2017-09-13T09:00:10.358Z,25
2017-09-13T09:01:19.998Z,15
2017-09-13T09:02:29.156Z,20
2017-09-13T09:03:37.986Z,15
2017-09-13T09:04:47.146Z,20
2017-09-13T09:05:55.983Z,25
2017-09-13T09:07:04.814Z,25
2017-09-13T09:08:13.654Z,30
2017-09-13T09:09:22.486Z,30
2017-09-13T09:10:31.321Z,20
2017-09-13T09:11:40.156Z,25
2017-09-13T09:12:48.995Z,20
2017-09-13T09:13:57.826Z,15
2017-09-13T09:15:06.655Z,15
2017-09-13T09:16:15.490Z,15
2017-09-13T09:17:24.650Z,15
2017-09-13T09:18:33.489Z,20
2017-09-13T09:19:42.321Z,20
2017-09-13T09:20:51.153Z,30
2017-09-13T09:21:59.984Z,35
2017-09-13T09:23:08.822Z,35
2017-09-13T09:24:17.656Z,35
2017-09-13T09:25:26.493Z,35
2017-09-13T09:26:35.329Z,30
2017-09-13T09:27:44.161Z,30
2017-09-13T09:28:52.988Z,25
2017-09-13T09:30:01.839Z,30
2017-09-13T09:31:10.663Z,35
2017-09-13T09:32:19.501Z,35
2017-09-13T09:33:28.334Z,40
2017-09-13T09:34:37.166Z,40
2017-09-13T09:35:46.002Z,35
2017-09-13T09:36:54.836Z,35
2017-09-13T09:38:03.671Z,30
2017-09-13T09:39:12.514Z,30
2017-09-13T09:40:21.344Z,25
2017-09-13T09:41:30.173Z,25
2017-09-13T09:42:39.009Z,35
2017-09-13T09:43:47.846Z,40
2017-09-13T09:44:56.680Z,55
2017-09-13T09:46:05.514Z,60
2017-09-13T09:47:14.345Z,60
2017-09-13T09:48:23.180Z,60
2017-09-13T09:49:32.011Z,55
2017-09-13T09:50:40.847Z,60
2017-09-13T09:51:49.683Z,60
2017-09-13T09:52:58.515Z,50
2017-09-13T09:54:07.354Z,40
2017-09-13T09:55:16.186Z,45
2017-09-13T09:56:25.017Z,40
2017-09-13T09:57:33.850Z,50
2017-09-13T09:58:42.681Z,45
2017-09-13T09:59:51.516Z,45
2017-09-13T10:01:00.351Z,55
2017-09-13T10:02:09.187Z,75
2017-09-13T10:03:18.019Z,80
2017-09-13T10:04:26.852Z,65
2017-09-13T10:05:35.687Z,55
2017-09-13T10:06:44.519Z,70
2017-09-13T10:07:53.359Z,70
2017-09-13T10:09:02.189Z,70
2017-09-13T10:10:11.019Z,70
2017-09-13T10:11:20.222Z,65
2017-09-13T10:12:29.059Z,75
2017-09-13T10:13:38.220Z,80
2017-09-13T10:14:47.049Z,75
2017-09-13T10:15:55.886Z,55
2017-09-13T10:17:04.714Z,50
2017-09-13T10:18:13.555Z,40
2017-09-13T10:19:22.389Z,80
2017-09-13T10:20:31.226Z,65
2017-09-13T10:21:40.062Z,35
2017-09-13T10:22:49.226Z,50
2017-09-13T10:23:58.057Z,50
2017-09-13T10:25:06.894Z,40
2017-09-13T10:26:15.725Z,85
2017-09-13T10:27:24.563Z,35
2017-09-13T10:28:33.398Z,50
2017-09-13T10:29:42.233Z,60
2017-09-13T10:30:51.066Z,65
2017-09-13T10:31:59.898Z,80
2017-09-13T10:33:08.737Z,90
2017-09-13T10:34:17.568Z,90
2017-09-13T10:35:26.398Z,65
2017-09-13T10:36:35.232Z,50
2017-09-13T10:37:44.386Z,55
2017-09-13T10:38:53.221Z,50
2017-09-13T10:40:02.058Z,50
2017-09-13T10:41:10.891Z,50
2017-09-13T10:42:19.721Z,60
2017-09-13T10:43:28.558Z,65
2017-09-13T10:44:37.388Z,55
2017-09-13T10:45:46.228Z,60
2017-09-13T10:46:55.067Z,80
2017-09-13T10:48:04.225Z,75
2017-09-13T10:49:13.059Z,65
2017-09-13T10:50:21.897Z,50
2017-09-13T10:51:30.730Z,55
2017-09-13T10:52:39.573Z,40
2017-09-13T10:53:48.410Z,50
2017-09-13T10:54:57.240Z,75
2017-09-13T10:56:06.077Z,100
2017-09-13T10:57:14.916Z,65
2017-09-13T10:58:23.749Z,70
2017-09-13T10:59:32.586Z,40
2017-09-13T11:00:41.421Z,75
2017-09-13T11:01:50.256Z,55
2017-09-13T11:02:59.094Z,60
2017-09-13T11:04:07.926Z,65
2017-09-13T11:05:16.765Z,25
2017-09-13T11:06:25.598Z,60
2017-09-13T11:07:34.435Z,50
2017-09-13T11:08:43.269Z,45
2017-09-13T11:09:52.104Z,45
2017-09-13T11:11:00.935Z,45
2017-09-13T11:12:09.775Z,50
2017-09-13T11:13:18.608Z,20
2017-09-13T11:14:27.447Z,55
2017-09-13T11:15:36.287Z,45
2017-09-13T11:16:45.437Z,45
2017-09-13T11:17:54.277Z,55
2017-09-13T11:19:03.112Z,50
2017-09-13T11:20:11.948Z,50
2017-09-13T11:21:21.106Z,45
2017-09-13T11:22:29.943Z,50
2017-09-13T11:23:38.780Z,45
2017-09-13T11:24:47.619Z,55
2017-09-13T11:25:56.455Z,60
2017-09-13T11:27:05.289Z,35
2017-09-13T11:28:14.451Z,60
2017-09-13T11:29:23.288Z,60
2017-09-13T11:30:32.127Z,50
2017-09-13T11:31:40.961Z,55
2017-09-13T11:32:49.797Z,45
2017-09-13T11:33:58.633Z,80
2017-09-13T11:35:07.474Z,60
2017-09-13T11:36:16.311Z,60
2017-09-13T11:37:25.144Z,65
2017-09-13T11:38:34.003Z,60
2017-09-13T11:39:42.822Z,80
2017-09-13T11:40:51.659Z,55
2017-09-13T11:42:00.494Z,50
2017-09-13T11:43:09.330Z,50
2017-09-13T11:44:18.160Z,30
2017-09-13T11:45:26.995Z,55
2017-09-13T11:46:35.831Z,25
2017-09-13T11:47:44.664Z,25
2017-09-13T11:48:53.502Z,30
2017-09-13T11:50:02.339Z,45
2017-09-13T11:51:11.177Z,50
2017-09-13T11:52:20.018Z,50
2017-09-13T11:53:28.849Z,60
2017-09-13T11:54:37.683Z,35
2017-09-13T11:55:46.516Z,35
2017-09-13T11:56:55.356Z,45
2017-09-13T11:58:04.188Z,45
2017-09-13T11:59:13.028Z,50
2017-09-13T12:00:21.866Z,40
2017-09-13T12:01:30.702Z,70
2017-09-13T12:02:39.544Z,40
2017-09-13T12:03:48.710Z,35
2017-09-13T12:04:57.545Z,30
2017-09-13T12:06:06.380Z,40
2017-09-13T12:07:15.220Z,50
2017-09-13T12:08:24.055Z,80
2017-09-13T12:09:33.219Z,50
2017-09-13T12:10:42.058Z,75
2017-09-13T12:11:50.892Z,70
2017-09-13T12:12:59.729Z,40
2017-09-13T12:14:08.562Z,70
2017-09-13T12:15:17.402Z,25
2017-09-13T12:16:26.234Z,35
2017-09-13T12:17:35.069Z,35
2017-09-13T12:18:43.904Z,60
2017-09-13T12:19:52.744Z,65
2017-09-13T12:21:01.579Z,60
2017-09-13T12:22:10.414Z,70
2017-09-13T12:23:19.255Z,60
2017-09-13T12:24:28.095Z,45
2017-09-13T12:25:36.935Z,80
2017-09-13T12:26:45.768Z,70
2017-09-13T12:27:54.602Z,40
2017-09-13T12:29:03.770Z,45
2017-09-13T12:30:12.609Z,50
2017-09-13T12:31:21.447Z,55
2017-09-13T12:32:30.279Z,55
2017-09-13T12:33:39.118Z,45
2017-09-13T12:34:47.953Z,75
2017-09-13T12:35:56.794Z,60
2017-09-13T12:37:05.636Z,45
2017-09-13T12:38:14.469Z,75
2017-09-13T12:39:23.304Z,65
2017-09-13T12:40:32.467Z,50
2017-09-13T12:41:41.302Z,45
2017-09-13T12:42:50.140Z,50
2017-09-13T12:43:58.979Z,50
2017-09-13T12:45:07.812Z,70
2017-09-13T12:46:16.646Z,75
2017-09-13T12:47:25.485Z,45
2017-09-13T12:48:34.319Z,50
2017-09-13T12:49:43.157Z,60
2017-09-13T12:50:51.994Z,70
2017-09-13T12:52:00.830Z,60
2017-09-13T12:53:09.667Z,50
2017-09-13T12:54:18.511Z,90
2017-09-13T12:55:27.681Z,65
2017-09-13T12:56:36.512Z,65
2017-09-13T12:57:45.352Z,55
2017-09-13T12:58:54.187Z,50
2017-09-13T13:00:03.349Z,50
2017-09-13T13:01:12.183Z,45
2017-09-13T13:02:21.021Z,40
2017-09-13T13:03:29.857Z,40
2017-09-13T13:04:38.697Z,40
2017-09-13T13:05:47.533Z,35
2017-09-13T13:06:56.369Z,40
2017-09-13T13:08:05.207Z,40
2017-09-13T13:09:14.042Z,45
2017-09-13T13:10:22.882Z,40
2017-09-13T13:11:31.720Z,50
2017-09-13T13:12:40.556Z,50
2017-09-13T13:13:49.392Z,50
2017-09-13T13:14:58.234Z,55
2017-09-13T13:16:07.072Z,50
2017-09-13T13:17:15.904Z,50
2017-09-13T13:18:24.744Z,50
2017-09-13T13:19:33.580Z,45
2017-09-13T13:20:42.422Z,50
2017-09-13T13:21:51.265Z,75
2017-09-13T13:23:00.105Z,80
2017-09-13T13:24:08.943Z,55
2017-09-13T13:25:17.781Z,45
2017-09-13T13:26:26.613Z,50
2017-09-13T13:27:35.448Z,55
2017-09-13T13:28:44.285Z,50
2017-09-13T13:29:53.120Z,35
2017-09-13T13:31:01.957Z,35
2017-09-13T13:32:10.794Z,45
2017-09-13T13:33:19.633Z,50
2017-09-13T13:34:28.469Z,45
2017-09-13T13:35:37.308Z,70
2017-09-13T13:36:46.151Z,45
2017-09-13T13:37:54.985Z,90
2017-09-13T13:39:03.826Z,80
2017-09-13T13:40:12.668Z,60
2017-09-13T13:41:22.620Z,50
2017-09-13T13:42:32.394Z,70
2017-09-13T13:43:42.424Z,65
2017-09-13T13:44:52.684Z,55
2017-09-13T13:46:02.359Z,55
2017-09-13T13:47:11.928Z,60
2017-09-13T13:48:21.044Z,55
2017-09-13T13:49:29.891Z,50
2017-09-13T13:50:38.737Z,40
2017-09-13T13:51:47.572Z,20
2017-09-13T13:52:56.413Z,30
2017-09-13T13:54:05.579Z,20
2017-09-13T13:55:14.413Z,30
2017-09-13T13:56:23.252Z,65
2017-09-13T13:57:32.098Z,45
2017-09-13T13:58:40.932Z,30
2017-09-13T13:59:49.787Z,70
2017-09-13T14:00:58.647Z,50
2017-09-13T14:02:07.507Z,65
2017-09-13T14:03:16.370Z,55
2017-09-13T14:04:25.229Z,50
2017-09-13T14:05:34.091Z,55
2017-09-13T14:06:42.941Z,50
2017-09-13T14:07:51.799Z,40
2017-09-13T14:09:00.660Z,40
2017-09-13T14:10:09.540Z,45
2017-09-13T14:11:18.411Z,40
2017-09-13T14:12:27.267Z,45
2017-09-13T14:13:36.130Z,20
2017-09-13T14:14:44.991Z,15
2017-09-13T14:15:53.876Z,15
2017-09-13T14:17:02.737Z,20
2017-09-13T14:18:11.900Z,25
2017-09-13T14:19:21.467Z,25
2017-09-13T14:20:30.609Z,15
2017-09-13T14:21:39.488Z,15
2017-09-13T14:22:48.342Z,15
2017-09-13T14:23:57.201Z,20
2017-09-13T14:25:06.061Z,55
2017-09-13T14:26:14.937Z,70
2017-09-13T14:27:23.797Z,120
2017-09-13T14:28:32.650Z,45
2017-09-13T14:29:41.505Z,70
2017-09-13T14:30:50.364Z,45
2017-09-13T14:31:59.225Z,40
2017-09-13T14:33:08.414Z,40
2017-09-13T14:34:17.270Z,40
2017-09-13T14:35:26.131Z,35
2017-09-13T14:36:34.984Z,25
2017-09-13T14:37:43.851Z,15
2017-09-13T14:38:52.707Z,10
2017-09-13T14:40:01.564Z,15
2017-09-13T14:41:10.415Z,10
2017-09-13T14:42:19.269Z,15
2017-09-13T14:43:28.453Z,20
2017-09-13T14:44:37.312Z,20
2017-09-13T14:45:46.516Z,20
2017-09-13T14:46:55.378Z,15
2017-09-13T14:48:04.244Z,5
2017-09-13T14:49:13.099Z,5
2017-09-13T14:50:21.964Z,0
2017-09-13T14:51:30.823Z,0
2017-09-13T14:52:39.681Z,5
2017-09-13T14:53:48.608Z,5
2017-09-13T14:54:57.451Z,10
2017-09-13T14:56:06.292Z,15
2017-09-13T14:57:15.127Z,20
2017-09-13T14:58:23.975Z,30
2017-09-13T14:59:33.238Z,35
2017-09-13T15:00:42.072Z,40
2017-09-13T15:01:51.773Z,40
2017-09-13T15:03:00.787Z,30
2017-09-13T15:04:09.623Z,35
2017-09-13T15:05:18.522Z,40
2017-09-13T15:06:27.707Z,35
2017-09-13T15:07:36.584Z,35
2017-09-13T15:08:45.480Z,30
2017-09-13T15:09:54.316Z,30
2017-09-13T15:11:03.171Z,25
2017-09-13T15:12:12.270Z,25
2017-09-13T15:13:21.248Z,25
2017-09-13T15:14:30.621Z,25
2017-09-13T15:15:39.826Z,25
2017-09-13T15:16:48.750Z,25
2017-09-13T15:17:57.588Z,25
2017-09-13T15:19:06.478Z,25
2017-09-13T15:20:15.325Z,25
2017-09-13T15:21:24.240Z,20
2017-09-13T15:22:33.127Z,20
2017-09-13T15:23:42.081Z,20
2017-09-13T15:24:50.917Z,20
2017-09-13T15:25:59.944Z,20
2017-09-13T15:27:08.841Z,20
2017-09-13T15:28:17.774Z,20
2017-09-13T15:29:26.605Z,20
2017-09-13T15:30:35.489Z,20
2017-09-13T15:31:44.348Z,20
2017-09-13T15:32:53.185Z,20
2017-09-13T15:34:02.022Z,20
2017-09-13T15:35:10.874Z,15
2017-09-13T15:36:19.745Z,15
2017-09-13T15:37:28.688Z,15
2017-09-13T15:38:37.820Z,15
2017-09-13T15:39:46.662Z,15
2017-09-13T15:40:55.702Z,15
2017-09-13T15:42:04.535Z,15
2017-09-13T15:43:13.739Z,15
2017-09-13T15:44:22.577Z,15
2017-09-13T15:45:31.525Z,15
2017-09-13T15:46:40.400Z,15
2017-09-13T15:47:49.322Z,15
2017-09-13T15:48:58.279Z,15
2017-09-13T15:50:07.160Z,15
2017-09-13T15:51:16.518Z,15
2017-09-13T15:52:25.349Z,15
2017-09-13T15:53:34.237Z,15
2017-09-13T15:54:43.218Z,10
2017-09-13T15:55:52.207Z,10
2017-09-13T15:57:01.055Z,10
2017-09-13T15:58:09.890Z,10
2017-09-13T15:59:18.731Z,10
2017-09-13T16:00:27.569Z,10
2017-09-13T16:01:36.409Z,10
2017-09-13T16:02:45.242Z,10
2017-09-13T16:03:54.079Z,10
2017-09-13T16:05:02.915Z,10
2017-09-13T16:06:11.749Z,10
2017-09-13T16:07:20.582Z,10
2017-09-13T16:08:29.422Z,10
2017-09-13T16:09:38.258Z,10
2017-09-13T16:10:47.094Z,10
2017-09-13T16:11:56.257Z,10
2017-09-13T16:13:05.090Z,10
2017-09-13T16:14:13.928Z,10
2017-09-13T16:15:22.761Z,10
2017-09-13T16:16:31.602Z,10
2017-09-13T16:17:40.439Z,10
2017-09-13T16:18:49.267Z,10
2017-09-13T16:19:58.102Z,10
2017-09-13T16:21:06.939Z,10
2017-09-13T16:22:15.771Z,10
2017-09-13T16:23:24.608Z,10
2017-09-13T16:24:33.444Z,10
2017-09-13T16:25:42.281Z,10
2017-09-13T16:26:51.233Z,5
2017-09-13T16:28:00.079Z,10
2017-09-13T16:29:09.070Z,5
2017-09-13T16:30:18.044Z,5
2017-09-13T16:31:26.943Z,5
2017-09-13T16:32:35.903Z,5
2017-09-13T16:33:44.810Z,5
2017-09-13T16:34:53.946Z,5
2017-09-13T16:36:02.787Z,5
2017-09-13T16:37:11.719Z,5
2017-09-13T16:38:20.559Z,5
2017-09-13T16:39:29.435Z,5
2017-09-13T16:40:38.644Z,5
2017-09-13T16:41:47.479Z,5
2017-09-13T16:42:56.371Z,5
2017-09-13T16:44:05.207Z,5
2017-09-13T16:45:14.164Z,5
2017-09-13T16:46:23.002Z,5
2017-09-13T16:47:31.845Z,5
2017-09-13T16:48:40.726Z,5
2017-09-13T16:49:49.650Z,5
2017-09-13T16:50:58.532Z,5
2017-09-13T16:52:07.375Z,5
2017-09-13T16:53:16.238Z,5
2017-09-13T16:54:25.183Z,5
2017-09-13T16:55:34.098Z,5
2017-09-13T16:56:43.077Z,5
2017-09-13T16:57:51.970Z,5
2017-09-13T16:59:00.917Z,5
2017-09-13T17:00:09.848Z,0
2017-09-13T17:01:18.800Z,0
2017-09-13T17:02:27.712Z,0
2017-09-13T17:03:36.715Z,0
2017-09-13T17:04:45.598Z,0
2017-09-13T17:05:54.518Z,0
2017-09-13T17:07:03.415Z,0
2017-09-13T17:08:12.430Z,0
2017-09-13T17:09:21.310Z,0
2017-09-13T17:10:30.245Z,0
2017-09-13T17:11:39.292Z,0
2017-09-13T17:12:48.486Z,0
2017-09-13T17:13:57.536Z,0
2017-09-13T17:15:06.377Z,0
2017-09-13T17:16:15.797Z,0
2017-09-13T17:17:24.666Z,0
2017-09-13T17:18:33.650Z,0
2017-09-13T17:19:42.498Z,0
2017-09-13T17:20:51.344Z,0
2017-09-13T17:22:00.177Z,0
2017-09-13T17:23:09.014Z,0
2017-09-13T17:24:17.848Z,0
2017-09-13T17:25:26.683Z,0
2017-09-13T17:26:35.518Z,0
2017-09-13T17:27:44.353Z,0
2017-09-13T17:28:53.185Z,0
2017-09-13T17:30:02.025Z,0
2017-09-13T17:31:10.863Z,0
2017-09-13T17:32:19.698Z,0
2017-09-13T17:33:28.531Z,0
2017-09-13T17:34:37.370Z,0
2017-09-13T17:35:46.205Z,0
2017-09-13T17:36:55.044Z,0
2017-09-13T17:38:03.880Z,0
2017-09-13T17:39:12.721Z,0
2017-09-13T17:40:21.557Z,0
2017-09-13T17:41:30.398Z,0
2017-09-13T17:42:39.228Z,0
2017-09-13T17:43:48.065Z,0
2017-09-13T17:44:56.906Z,0
2017-09-13T17:46:05.746Z,0
2017-09-13T17:47:14.580Z,0
2017-09-13T17:48:23.421Z,0
2017-09-13T17:49:32.256Z,0
2017-09-13T17:50:41.091Z,0
2017-09-13T17:51:49.928Z,0
2017-09-13T17:52:59.095Z,0
2017-09-13T17:54:07.930Z,0
2017-09-13T17:55:16.766Z,0
2017-09-13T17:56:25.611Z,0
2017-09-13T17:57:34.446Z,0
2017-09-13T17:58:43.286Z,0
2017-09-13T17:59:52.119Z,0
2017-09-13T18:01:00.958Z,0
2017-09-13T18:02:09.794Z,0
2017-09-13T18:03:18.630Z,0
2017-09-13T18:04:27.463Z,0
2017-09-13T18:05:36.366Z,0
2017-09-13T18:06:45.546Z,0
2017-09-13T18:07:54.379Z,0
2017-09-13T18:09:03.309Z,0
2017-09-13T18:10:12.169Z,0
2017-09-13T18:11:21.028Z,0
2017-09-13T18:12:29.879Z,0
2017-09-13T18:13:38.713Z,0
2017-09-13T18:14:47.583Z,0
2017-09-13T18:15:56.437Z,0
2017-09-13T18:17:05.298Z,0
2017-09-13T18:18:14.160Z,0
2017-09-13T18:19:23.014Z,0
2017-09-13T18:20:32.194Z,0
2017-09-13T18:21:41.047Z,0
2017-09-13T18:22:49.904Z,0
2017-09-13T18:23:58.757Z,0
2017-09-13T18:25:07.616Z,0
2017-09-13T18:26:16.478Z,0
2017-09-13T18:27:25.326Z,0
2017-09-13T18:28:34.183Z,0
2017-09-13T18:29:43.035Z,0
2017-09-13T18:30:51.899Z,0
2017-09-13T18:32:01.084Z,0
2017-09-13T18:33:09.937Z,0
2017-09-13T18:34:18.788Z,0
2017-09-13T18:35:27.651Z,0
2017-09-13T18:36:36.513Z,0
2017-09-13T18:37:45.364Z,0
2017-09-13T18:38:54.219Z,0
2017-09-13T18:40:03.076Z,0
2017-09-13T18:41:11.940Z,0
2017-09-13T18:42:20.806Z,0
2017-09-13T18:43:29.657Z,0
2017-09-13T18:44:38.513Z,0
2017-09-13T18:45:47.368Z,0
2017-09-13T18:46:56.228Z,0
2017-09-13T18:48:05.087Z,0
2017-09-13T18:49:13.948Z,0
2017-09-13T18:50:22.807Z,0
2017-09-13T18:51:31.660Z,0
2017-09-13T18:52:40.525Z,0
2017-09-13T18:53:49.717Z,0
2017-09-13T18:54:58.573Z,0
2017-09-13T18:56:07.433Z,0
2017-09-13T18:57:16.284Z,0
2017-09-13T18:58:25.143Z,0
2017-09-13T18:59:34.002Z,0
2017-09-13T19:00:42.871Z,0
2017-09-13T19:01:51.724Z,0
2017-09-13T19:03:00.623Z,0
2017-09-13T19:04:09.482Z,0
2017-09-13T19:05:18.337Z,0
2017-09-13T19:06:27.197Z,0
2017-09-13T19:07:36.056Z,0
2017-09-13T19:08:44.911Z,0
2017-09-13T19:09:53.760Z,0
2017-09-13T19:11:02.623Z,0
2017-09-13T19:12:11.476Z,0
2017-09-13T19:13:20.315Z,0
2017-09-13T19:14:29.155Z,0
2017-09-13T19:15:37.993Z,0
2017-09-13T19:16:46.824Z,0
2017-09-13T19:17:55.668Z,0
2017-09-13T19:19:04.501Z,0
2017-09-13T19:20:13.349Z,0
2017-09-13T19:21:22.515Z,0
2017-09-13T19:22:31.346Z,0
2017-09-13T19:23:40.188Z,0
2017-09-13T19:24:49.028Z,0
2017-09-13T19:25:57.903Z,0
2017-09-13T19:27:06.776Z,0
2017-09-13T19:28:15.615Z,0
2017-09-13T19:29:24.450Z,0
2017-09-13T19:30:33.286Z,0
2017-09-13T19:31:42.124Z,0
2017-09-13T19:32:50.959Z,0
2017-09-13T19:33:59.800Z,0
2017-09-13T19:35:08.635Z,0
2017-09-13T19:36:17.471Z,0
2017-09-13T19:37:26.310Z,0
2017-09-13T19:38:35.148Z,0
2017-09-13T19:39:43.980Z,0
2017-09-13T19:40:52.820Z,0
2017-09-13T19:42:01.662Z,0
2017-09-13T19:43:10.495Z,0
2017-09-13T19:44:19.333Z,0
2017-09-13T19:45:28.172Z,0
2017-09-13T19:46:37.006Z,0
2017-09-13T19:47:45.842Z,0
2017-09-13T19:48:54.681Z,0
2017-09-13T19:50:03.519Z,0
2017-09-13T19:51:12.352Z,0
2017-09-13T19:52:21.187Z,0
2017-09-13T19:53:30.027Z,0
2017-09-13T19:54:38.864Z,0
2017-09-13T19:55:47.703Z,0
2017-09-13T19:56:56.542Z,0
2017-09-13T19:58:05.382Z,0
2017-09-13T19:59:14.217Z,0
2017-09-13T20:00:23.057Z,0
2017-09-13T20:01:31.897Z,0
2017-09-13T20:02:41.050Z,0
2017-09-13T20:03:49.898Z,0
2017-09-13T20:04:58.720Z,0
2017-09-13T20:06:07.560Z,0
2017-09-13T20:07:16.400Z,0
2017-09-13T20:08:25.240Z,0
2017-09-13T20:09:34.074Z,0
2017-09-13T20:10:42.912Z,0
2017-09-13T20:11:51.745Z,0
2017-09-13T20:13:00.583Z,0
2017-09-13T20:14:09.420Z,0
2017-09-13T20:15:18.259Z,0
2017-09-13T20:16:27.094Z,0
2017-09-13T20:17:35.935Z,0
2017-09-13T20:18:44.773Z,0
2017-09-13T20:19:53.613Z,0
2017-09-13T20:21:02.851Z,0
2017-09-13T20:22:11.687Z,0
2017-09-13T20:23:20.522Z,0
2017-09-13T20:24:29.358Z,0
2017-09-13T20:25:38.198Z,0
2017-09-13T20:26:47.036Z,0
2017-09-13T20:27:55.869Z,0
2017-09-13T20:29:04.709Z,0
2017-09-13T20:30:13.549Z,0
2017-09-13T20:31:22.383Z,0
2017-09-13T20:32:31.221Z,0
2017-09-13T20:33:40.054Z,0
2017-09-13T20:34:48.888Z,0
2017-09-13T20:35:57.722Z,0
2017-09-13T20:37:06.560Z,0
2017-09-13T20:38:15.720Z,0
2017-09-13T20:39:24.563Z,0
2017-09-13T20:40:33.398Z,0
2017-09-13T20:41:42.232Z,0
2017-09-13T20:42:51.070Z,0
2017-09-13T20:43:59.907Z,0
2017-09-13T20:45:08.740Z,0
2017-09-13T20:46:17.583Z,0
2017-09-13T20:47:26.420Z,0
2017-09-13T20:48:35.255Z,0
2017-09-13T20:49:44.091Z,0
2017-09-13T20:50:52.935Z,0
2017-09-13T20:52:01.766Z,0
2017-09-13T20:53:10.607Z,0
2017-09-13T20:54:19.445Z,0
2017-09-13T20:55:28.288Z,0
2017-09-13T20:56:37.451Z,0
2017-09-13T20:57:46.288Z,0
2017-09-13T20:58:55.446Z,0
2017-09-13T21:00:04.283Z,0
2017-09-13T21:01:13.124Z,0
2017-09-13T21:02:21.953Z,0
2017-09-13T21:03:30.791Z,0
2017-09-13T21:04:39.625Z,0
2017-09-13T21:05:48.460Z,0
2017-09-13T21:06:57.293Z,0
2017-09-13T21:08:06.133Z,0
2017-09-13T21:09:14.965Z,0
2017-09-13T21:10:23.805Z,0
2017-09-13T21:11:32.640Z,0
2017-09-13T21:12:41.477Z,0
2017-09-13T21:13:50.304Z,0
2017-09-13T21:14:59.143Z,0
2017-09-13T21:16:07.980Z,0
2017-09-13T21:17:16.819Z,0
2017-09-13T21:18:25.656Z,0
2017-09-13T21:19:34.490Z,0
2017-09-13T21:20:43.360Z,0
2017-09-13T21:21:52.221Z,0
2017-09-13T21:23:01.055Z,0
2017-09-13T21:24:09.897Z,0
2017-09-13T21:25:18.733Z,0
2017-09-13T21:26:27.570Z,0
2017-09-13T21:27:36.407Z,0
2017-09-13T21:28:45.249Z,0
2017-09-13T21:29:54.085Z,0
2017-09-13T21:31:02.922Z,0
2017-09-13T21:32:11.758Z,0
2017-09-13T21:33:20.595Z,0
2017-09-13T21:34:29.429Z,0
2017-09-13T21:35:38.593Z,0
2017-09-13T21:36:47.437Z,0
2017-09-13T21:37:56.273Z,0
2017-09-13T21:39:05.109Z,0
2017-09-13T21:40:13.949Z,0
2017-09-13T21:41:22.784Z,0
2017-09-13T21:42:31.620Z,0
2017-09-13T21:43:40.454Z,0
2017-09-13T21:44:49.290Z,0
2017-09-13T21:45:58.172Z,0
2017-09-13T21:47:07.102Z,0
2017-09-13T21:48:15.935Z,0
2017-09-13T21:49:24.766Z,0
2017-09-13T21:50:33.607Z,0
2017-09-13T21:51:42.446Z,0
2017-09-13T21:52:51.279Z,0
2017-09-13T21:54:00.121Z,0
2017-09-13T21:55:08.946Z,0
2017-09-13T21:56:17.788Z,0
2017-09-13T21:57:26.627Z,0
2017-09-13T21:58:35.845Z,0
2017-09-13T21:59:44.680Z,0
2017-09-13T22:00:53.516Z,0
2017-09-13T22:02:02.349Z,0
2017-09-13T22:03:11.188Z,0
2017-09-13T22:04:20.024Z,0
2017-09-13T22:05:28.857Z,0
2017-09-13T22:06:37.697Z,0
2017-09-13T22:07:46.532Z,0
2017-09-13T22:08:55.369Z,0
2017-09-13T22:10:04.202Z,0
2017-09-13T22:11:13.039Z,0
2017-09-13T22:12:21.876Z,0
2017-09-13T22:13:30.711Z,0
2017-09-13T22:14:39.543Z,0
2017-09-13T22:15:48.386Z,0
2017-09-13T22:16:57.229Z,0
2017-09-13T22:18:06.061Z,0
2017-09-13T22:19:14.899Z,0
2017-09-13T22:20:23.740Z,0
2017-09-13T22:21:32.568Z,0
2017-09-13T22:22:41.409Z,0
2017-09-13T22:23:50.243Z,0
2017-09-13T22:24:59.081Z,0
2017-09-13T22:26:07.912Z,0
2017-09-13T22:27:16.753Z,0
2017-09-13T22:33:18.877Z,0
2017-09-13T22:35:34.870Z,0
2017-09-13T22:36:43.704Z,0
2017-09-13T22:37:52.544Z,0
2017-09-13T22:39:01.381Z,0
2017-09-13T22:40:10.213Z,0
2017-09-13T22:41:19.055Z,0
2017-09-13T22:42:27.891Z,0
2017-09-13T22:43:36.847Z,0
2017-09-13T22:44:45.685Z,0
2017-09-13T22:45:54.529Z,0
2017-09-13T22:47:03.360Z,0
2017-09-13T22:48:12.191Z,0
2017-09-13T22:49:21.027Z,0
2017-09-13T22:50:30.001Z,0
2017-09-13T22:51:38.924Z,0
2017-09-13T22:52:47.866Z,0
2017-09-13T22:53:56.868Z,0
2017-09-13T22:55:05.801Z,0
2017-09-13T22:56:14.673Z,0
2017-09-13T22:57:23.534Z,0
2017-09-13T22:58:32.446Z,0
2017-09-13T22:59:41.282Z,0
2017-09-13T23:00:50.195Z,0
2017-09-13T23:01:59.034Z,0
2017-09-13T23:03:07.927Z,0
2017-09-13T23:04:16.765Z,0
2017-09-13T23:05:25.656Z,0
2017-09-13T23:06:34.616Z,0